Time;durP1;ratioP1;P1;durP2;ratioP2;P2;SDS_P1;SDS_P2;PMS_P1;PMS_P2;Temp;Humidity;BMP_temperature;BMP_pressure;BME280_temperature;BME280_humidity;BME280_pressure;Samples;Min_cycle;Max_cycle;Signal;HPM_P1;HPM_P2
2024/01/14 00:00:58;;;;;;;39.85;5.40;;;4.70;99.90;;;;;;5071047;28;20025;-73
2024/01/14 00:03:24;;;;;;;42.08;5.82;;;4.70;99.90;;;;;;5071232;28;20581;-73
2024/01/14 00:05:49;;;;;;;38.20;5.05;;;4.70;99.90;;;;;;5071434;28;20017;-73
2024/01/14 00:08:15;;;;;;;39.50;4.65;;;4.70;99.90;;;;;;5071848;28;20506;-73
2024/01/14 00:10:40;;;;;;;39.53;4.97;;;4.70;99.90;;;;;;5071672;28;20028;-74
2024/01/14 00:13:06;;;;;;;44.80;5.03;;;4.70;99.90;;;;;;5071531;28;20029;-72
2024/01/14 00:15:31;;;;;;;52.03;5.93;;;4.70;99.90;;;;;;5071147;28;20484;-73
2024/01/14 00:17:57;;;;;;;43.28;5.63;;;4.70;99.90;;;;;;5071665;28;20384;-73
2024/01/14 00:20:23;;;;;;;41.10;5.32;;;4.70;99.90;;;;;;5075031;28;20319;-73
2024/01/14 00:22:48;;;;;;;34.60;4.78;;;4.70;99.90;;;;;;5075674;28;20426;-72
2024/01/14 00:25:14;;;;;;;33.22;5.00;;;4.80;99.90;;;;;;5075075;28;20033;-73
2024/01/14 00:27:40;;;;;;;39.60;4.70;;;4.80;99.90;;;;;;5074857;28;20021;-73
2024/01/14 00:30:06;;;;;;;41.85;4.03;;;4.80;99.90;;;;;;5074538;28;20029;-72
2024/01/14 00:32:32;;;;;;;33.40;5.15;;;4.90;99.90;;;;;;5074890;28;20078;-72
2024/01/14 00:34:58;;;;;;;41.72;4.35;;;4.80;99.90;;;;;;5074496;28;20060;-71
2024/01/14 00:37:25;;;;;;;46.28;6.35;;;4.90;99.90;;;;;;5074807;28;20024;-73
2024/01/14 00:39:50;;;;;;;48.25;5.88;;;4.80;99.90;;;;;;5074333;28;20455;-72
2024/01/14 00:42:16;;;;;;;46.95;4.93;;;4.90;99.90;;;;;;5074448;28;20111;-73
2024/01/14 00:44:42;;;;;;;48.30;6.20;;;4.90;99.90;;;;;;5074324;28;20514;-73
2024/01/14 00:47:08;;;;;;;38.55;4.97;;;4.90;99.90;;;;;;5075217;28;20105;-72
2024/01/14 00:49:33;;;;;;;48.03;5.47;;;4.90;99.90;;;;;;5073929;28;20051;-72
2024/01/14 00:51:59;;;;;;;55.53;5.90;;;4.90;99.90;;;;;;5075219;28;20099;-74
2024/01/14 00:54:25;;;;;;;39.63;4.88;;;5.00;99.90;;;;;;5074123;28;20020;-72
2024/01/14 00:56:50;;;;;;;55.80;5.60;;;5.10;99.90;;;;;;5074188;28;20110;-71
2024/01/14 00:59:16;;;;;;;43.78;6.28;;;5.10;99.90;;;;;;5074220;28;20483;-74
2024/01/14 01:01:41;;;;;;;52.58;6.18;;;5.10;99.90;;;;;;5071027;28;20024;-72
2024/01/14 01:04:07;;;;;;;44.22;5.30;;;5.10;99.90;;;;;;5072969;28;20028;-73
2024/01/14 01:06:32;;;;;;;50.53;6.05;;;5.10;99.90;;;;;;5073507;28;20021;-73
2024/01/14 01:09:00;;;;;;;41.75;5.72;;;5.10;99.90;;;;;;5073812;28;20119;-74
2024/01/14 01:11:26;;;;;;;54.45;6.18;;;5.20;99.90;;;;;;5074260;28;20012;-74
2024/01/14 01:13:51;;;;;;;47.92;5.82;;;5.10;99.90;;;;;;5073530;28;20021;-73
2024/01/14 01:16:17;;;;;;;47.45;6.40;;;5.10;99.90;;;;;;5073576;28;20059;-73
2024/01/14 01:18:43;;;;;;;58.53;6.50;;;5.10;99.90;;;;;;5073908;28;20029;-73
2024/01/14 01:21:09;;;;;;;42.17;5.43;;;5.10;99.90;;;;;;5074373;28;20029;-72
2024/01/14 01:23:35;;;;;;;57.35;7.53;;;5.10;99.90;;;;;;5074196;28;20044;-73
2024/01/14 01:26:00;;;;;;;50.53;6.93;;;5.10;99.90;;;;;;5074707;28;20033;-73
2024/01/14 01:28:26;;;;;;;63.25;6.88;;;5.10;99.90;;;;;;5074286;28;20116;-74
2024/01/14 01:30:51;;;;;;;51.13;5.88;;;5.10;99.90;;;;;;5074136;28;20035;-73
2024/01/14 01:33:17;;;;;;;47.92;5.00;;;5.20;99.90;;;;;;5073634;28;20443;-73
2024/01/14 01:35:43;;;;;;;48.72;5.25;;;5.20;99.90;;;;;;5073104;28;20087;-73
2024/01/14 01:38:08;;;;;;;48.72;5.15;;;5.20;99.90;;;;;;5073211;28;20395;-72
2024/01/14 01:40:34;;;;;;;44.53;4.40;;;5.20;99.90;;;;;;5074116;28;20040;-73
2024/01/14 01:42:59;;;;;;;36.95;4.90;;;5.20;99.90;;;;;;5074208;28;20032;-72
2024/01/14 01:45:25;;;;;;;31.17;3.00;;;5.10;99.90;;;;;;5073939;28;20031;-73
2024/01/14 01:47:51;;;;;;;26.75;3.38;;;5.10;99.90;;;;;;5074389;28;20085;-73
2024/01/14 01:50:17;;;;;;;20.95;2.63;;;5.10;99.90;;;;;;5074882;28;20487;-72
2024/01/14 01:52:44;;;;;;;15.93;2.00;;;5.10;99.90;;;;;;5074310;28;20036;-73
2024/01/14 01:55:11;;;;;;;18.13;2.25;;;5.10;99.90;;;;;;5072570;28;20026;-72
2024/01/14 01:57:38;;;;;;;13.85;2.30;;;5.10;99.90;;;;;;5077954;28;20044;-73
2024/01/14 02:00:08;;;;;;;22.55;2.97;;;5.10;99.90;;;;;;5083792;28;20341;-72
2024/01/14 02:02:35;;;;;;;17.35;2.80;;;5.00;99.90;;;;;;5080623;28;20034;-72
2024/01/14 02:05:02;;;;;;;21.70;2.70;;;5.00;99.90;;;;;;5085626;28;20039;-72
2024/01/14 02:07:29;;;;;;;18.90;2.42;;;4.90;99.90;;;;;;5074542;28;20021;-73
2024/01/14 02:09:55;;;;;;;15.23;2.10;;;4.80;99.90;;;;;;5072523;28;20166;-72
2024/01/14 02:12:21;;;;;;;16.73;3.10;;;4.80;99.90;;;;;;5072613;28;20087;-73
2024/01/14 02:14:46;;;;;;;20.15;2.20;;;4.70;99.90;;;;;;5077614;28;20095;-73
2024/01/14 02:17:12;;;;;;;17.58;2.22;;;4.70;99.90;;;;;;5077646;28;20048;-72
2024/01/14 02:19:38;;;;;;;17.40;2.13;;;4.70;99.90;;;;;;5078084;28;20035;-72
2024/01/14 02:22:13;;;;;;;19.98;2.60;;;4.60;99.90;;;;;;5073549;28;20503;-73
2024/01/14 02:24:39;;;;;;;20.50;2.65;;;;;;;;;;5071865;28;20082;-72
2024/01/14 02:27:05;;;;;;;16.25;2.58;;;4.60;99.90;;;;;;5072318;28;20479;-73
2024/01/14 02:29:31;;;;;;;13.10;2.40;;;4.60;99.90;;;;;;5072333;28;20033;-72
2024/01/14 02:31:57;;;;;;;18.38;2.00;;;4.60;99.90;;;;;;5075221;28;20020;-73
2024/01/14 02:34:23;;;;;;;16.58;2.20;;;4.50;99.90;;;;;;5083255;28;20047;-73
2024/01/14 02:36:49;;;;;;;16.85;2.55;;;4.40;99.90;;;;;;5075781;28;20056;-73
2024/01/14 02:39:17;;;;;;;17.52;2.60;;;4.40;99.90;;;;;;5072377;28;20032;-73
2024/01/14 02:41:43;;;;;;;18.17;2.60;;;4.40;99.90;;;;;;5071306;28;20435;-73
2024/01/14 02:44:09;;;;;;;21.05;2.88;;;4.40;99.90;;;;;;5072004;28;20054;-72
2024/01/14 02:46:35;;;;;;;35.45;3.88;;;4.40;99.90;;;;;;5071900;28;20016;-73
2024/01/14 02:49:01;;;;;;;24.38;3.28;;;4.40;99.90;;;;;;5071074;28;20012;-73
2024/01/14 02:51:27;;;;;;;19.50;2.65;;;4.40;99.90;;;;;;5071680;28;20025;-75
2024/01/14 02:53:53;;;;;;;24.85;2.75;;;4.40;99.90;;;;;;5071153;28;20094;-72
2024/01/14 02:56:18;;;;;;;16.80;2.67;;;4.30;99.90;;;;;;5086076;28;20031;-73
2024/01/14 02:58:44;;;;;;;22.05;2.83;;;4.30;99.90;;;;;;5077123;28;20399;-74
2024/01/14 03:01:11;;;;;;;20.60;3.05;;;4.20;99.90;;;;;;5075040;28;20060;-74
2024/01/14 03:03:37;;;;;;;20.70;2.65;;;4.20;99.90;;;;;;5085883;28;20054;-73
2024/01/14 03:06:04;;;;;;;21.55;3.22;;;4.30;99.90;;;;;;5083430;28;20032;-73
2024/01/14 03:08:29;;;;;;;25.35;3.33;;;4.20;99.90;;;;;;5085014;28;20066;-72
2024/01/14 03:10:55;;;;;;;29.50;3.28;;;4.10;99.90;;;;;;5083630;28;20035;-71
2024/01/14 03:13:21;;;;;;;32.08;3.30;;;4.20;99.90;;;;;;5082542;28;20560;-73
2024/01/14 03:15:46;;;;;;;20.42;2.33;;;4.30;99.90;;;;;;5096263;28;20026;-71
2024/01/14 03:18:12;;;;;;;34.17;4.13;;;4.20;99.90;;;;;;5086762;28;20031;-73
2024/01/14 03:20:38;;;;;;;27.48;2.80;;;4.00;99.90;;;;;;5079494;28;20029;-72
2024/01/14 03:23:04;;;;;;;28.05;3.10;;;4.20;99.90;;;;;;5090212;28;20328;-73
2024/01/14 03:25:30;;;;;;;23.48;3.38;;;4.00;99.90;;;;;;5089798;28;20036;-73
2024/01/14 03:27:55;;;;;;;26.23;3.40;;;4.00;99.90;;;;;;5083785;28;20433;-72
2024/01/14 03:30:21;;;;;;;20.55;3.00;;;4.00;99.90;;;;;;5076938;28;20036;-70
2024/01/14 03:32:46;;;;;;;22.40;3.17;;;4.00;99.90;;;;;;5073551;28;20031;-72
2024/01/14 03:35:12;;;;;;;29.83;3.03;;;3.90;99.90;;;;;;5070063;28;20036;-71
2024/01/14 03:37:38;;;;;;;25.92;3.45;;;3.90;99.90;;;;;;5071520;28;20031;-71
2024/01/14 03:40:05;;;;;;;33.45;3.58;;;3.90;99.90;;;;;;5071280;28;20044;-71
2024/01/14 03:42:30;;;;;;;28.65;3.50;;;3.90;99.90;;;;;;5071356;28;20025;-71
2024/01/14 03:44:56;;;;;;;23.30;3.20;;;3.90;99.90;;;;;;5070600;28;20040;-71
2024/01/14 03:47:22;;;;;;;37.60;3.90;;;3.90;99.90;;;;;;5074244;28;20494;-71
2024/01/14 03:49:47;;;;;;;23.15;3.58;;;3.90;99.90;;;;;;5070906;28;20123;-71
2024/01/14 03:52:13;;;;;;;33.25;3.28;;;3.90;99.90;;;;;;5072383;28;20020;-71
2024/01/14 03:54:38;;;;;;;30.50;3.58;;;4.00;99.90;;;;;;5080805;28;20391;-72
2024/01/14 03:57:04;;;;;;;23.77;3.40;;;4.00;99.90;;;;;;5077413;28;20135;-71
2024/01/14 03:59:30;;;;;;;26.40;3.10;;;4.10;99.90;;;;;;5077286;28;20028;-72
2024/01/14 04:01:56;;;;;;;41.70;4.03;;;4.10;99.90;;;;;;5077172;28;20029;-72
2024/01/14 04:04:21;;;;;;;28.30;3.50;;;4.10;99.90;;;;;;5078001;28;20146;-72
2024/01/14 04:06:47;;;;;;;38.63;4.65;;;4.10;99.90;;;;;;5079256;28;20132;-73
2024/01/14 04:09:13;;;;;;;26.95;2.92;;;4.10;99.90;;;;;;5078524;28;20024;-71
2024/01/14 04:11:38;;;;;;;32.67;3.53;;;4.20;99.90;;;;;;5080236;28;20032;-70
2024/01/14 04:14:04;;;;;;;22.58;3.33;;;4.20;99.90;;;;;;5074712;28;20037;-71
2024/01/14 04:16:40;;;;;;;35.53;3.92;;;4.20;99.90;;;;;;5074790;28;20031;-70
2024/01/14 04:19:06;;;;;;;25.67;3.30;;;4.30;99.90;;;;;;5077201;28;20128;-71
2024/01/14 04:21:32;;;;;;;38.10;3.42;;;4.20;99.90;;;;;;5079389;28;20092;-71
2024/01/14 04:24:03;;;;;;;39.53;4.35;;;4.20;99.90;;;;;;5079687;28;20074;-72
2024/01/14 04:26:30;;;;;;;31.13;3.72;;;4.20;99.90;;;;;;5077053;28;20464;-71
2024/01/14 04:28:56;;;;;;;27.02;3.25;;;4.20;99.90;;;;;;5074493;28;20460;-69
2024/01/14 04:31:22;;;;;;;20.90;3.55;;;4.20;99.90;;;;;;5074430;28;20024;-70
2024/01/14 04:33:48;;;;;;;27.38;3.45;;;4.10;99.90;;;;;;5074395;28;20040;-70
2024/01/14 04:36:14;;;;;;;25.63;2.90;;;4.10;99.90;;;;;;5074185;28;20033;-70
2024/01/14 04:38:40;;;;;;;23.80;2.65;;;4.10;99.90;;;;;;5074441;28;20442;-71
2024/01/14 04:41:06;;;;;;;24.45;3.13;;;4.20;99.90;;;;;;5074449;28;20028;-70
2024/01/14 04:43:32;;;;;;;36.92;3.60;;;4.20;99.90;;;;;;5076873;28;20055;-71
2024/01/14 04:45:57;;;;;;;24.30;3.45;;;4.20;99.90;;;;;;5078658;28;20070;-71
2024/01/14 04:48:23;;;;;;;31.80;3.58;;;4.20;99.90;;;;;;5075469;28;20399;-70
2024/01/14 04:50:50;;;;;;;26.00;3.58;;;4.20;99.90;;;;;;5076211;28;20029;-70
2024/01/14 04:53:16;;;;;;;19.08;2.67;;;4.30;99.90;;;;;;5075974;28;20479;-70
2024/01/14 04:55:41;;;;;;;21.20;3.35;;;4.20;99.90;;;;;;5076043;28;20048;-71
2024/01/14 04:58:07;;;;;;;22.27;2.70;;;4.20;99.90;;;;;;5076195;28;20017;-73
2024/01/14 05:00:32;;;;;;;27.38;3.92;;;4.20;99.90;;;;;;5078816;28;20036;-70
2024/01/14 05:02:58;;;;;;;28.00;4.13;;;4.20;99.90;;;;;;5075051;28;20032;-70
2024/01/14 05:05:24;;;;;;;28.90;3.35;;;4.20;99.90;;;;;;5074197;28;20028;-71
2024/01/14 05:07:49;;;;;;;27.23;3.15;;;4.20;99.90;;;;;;5075040;28;20121;-69
2024/01/14 05:10:15;;;;;;;26.20;2.60;;;4.20;99.90;;;;;;5073692;28;20021;-70
2024/01/14 05:12:40;;;;;;;31.85;3.17;;;4.20;99.90;;;;;;5075491;28;20024;-71
2024/01/14 05:15:06;;;;;;;31.30;2.97;;;4.30;99.90;;;;;;5075212;28;20017;-70
2024/01/14 05:17:32;;;;;;;27.10;2.97;;;4.30;99.90;;;;;;5073950;28;20082;-70
2024/01/14 05:19:58;;;;;;;28.02;3.00;;;4.30;99.90;;;;;;5072246;28;20548;-70
2024/01/14 05:22:23;;;;;;;30.58;4.10;;;4.30;99.90;;;;;;5074774;28;20031;-70
2024/01/14 05:24:52;;;;;;;23.15;2.80;;;4.30;99.90;;;;;;5074894;28;20111;-71
2024/01/14 05:27:18;;;;;;;30.88;2.97;;;4.30;99.90;;;;;;5077893;28;20031;-70
2024/01/14 05:29:44;;;;;;;20.92;3.05;;;4.30;99.90;;;;;;5075577;28;20021;-70
2024/01/14 05:32:14;;;;;;;26.40;4.63;;;4.40;99.90;;;;;;5076224;28;20046;-71
2024/01/14 05:34:40;;;;;;;35.40;3.70;;;4.40;99.90;;;;;;5074070;28;20056;-70
2024/01/14 05:37:07;;;;;;;23.73;3.17;;;4.40;99.90;;;;;;5077158;28;20048;-72
2024/01/14 05:39:36;;;;;;;24.38;3.22;;;4.50;99.90;;;;;;5075218;28;20051;-70
2024/01/14 05:42:02;;;;;;;36.55;3.85;;;4.40;99.90;;;;;;5073254;28;20024;-71
2024/01/14 05:44:27;;;;;;;25.65;2.80;;;4.50;99.90;;;;;;5073394;28;20357;-70
2024/01/14 05:46:55;;;;;;;25.67;3.03;;;4.60;99.90;;;;;;5073037;28;20027;-72
2024/01/14 05:49:21;;;;;;;34.63;3.58;;;4.60;99.90;;;;;;5076023;28;20078;-72
2024/01/14 05:51:47;;;;;;;32.67;3.35;;;4.60;99.90;;;;;;5075638;28;20017;-71
2024/01/14 05:54:14;;;;;;;27.70;2.97;;;4.60;99.90;;;;;;5074120;28;20483;-71
2024/01/14 05:56:40;;;;;;;26.45;3.05;;;4.60;99.90;;;;;;5073462;28;20521;-71
2024/01/14 05:59:05;;;;;;;27.20;3.30;;;4.70;99.90;;;;;;5075900;28;20024;-71
2024/01/14 06:01:31;;;;;;;26.73;3.22;;;4.70;99.90;;;;;;5074535;28;20611;-74
2024/01/14 06:03:57;;;;;;;26.08;4.07;;;4.70;99.90;;;;;;5073212;28;20023;-73
2024/01/14 06:06:22;;;;;;;23.80;3.30;;;4.70;99.90;;;;;;5072802;28;20063;-73
2024/01/14 06:08:48;;;;;;;31.75;3.30;;;4.70;99.90;;;;;;5072886;28;20036;-73
2024/01/14 06:11:14;;;;;;;31.67;3.70;;;4.60;99.90;;;;;;5071366;28;20492;-72
2024/01/14 06:13:41;;;;;;;22.00;2.75;;;4.60;99.90;;;;;;5070478;28;20063;-73
2024/01/14 06:16:07;;;;;;;35.55;8.07;;;4.60;99.90;;;;;;5071317;28;20027;-72
2024/01/14 06:18:33;;;;;;;31.05;3.85;;;4.50;99.90;;;;;;5071339;28;20040;-72
2024/01/14 06:21:01;;;;;;;44.95;4.22;;;4.50;99.90;;;;;;5070685;28;20036;-74
2024/01/14 06:23:27;;;;;;;24.48;3.00;;;4.50;99.90;;;;;;5071232;28;20032;-74
2024/01/14 06:25:53;;;;;;;27.70;3.65;;;4.50;99.90;;;;;;5070012;28;20138;-70
2024/01/14 06:28:19;;;;;;;31.85;3.50;;;4.50;99.90;;;;;;5071854;28;20393;-71
2024/01/14 06:30:45;;;;;;;30.08;3.20;;;4.50;99.90;;;;;;5072360;28;20082;-69
2024/01/14 06:33:11;;;;;;;21.45;4.03;;;4.50;99.90;;;;;;5072452;28;20020;-70
2024/01/14 06:35:37;;;;;;;25.83;3.42;;;4.50;99.90;;;;;;5074189;28;20024;-74
2024/01/14 06:38:03;;;;;;;31.50;3.78;;;4.50;99.90;;;;;;5068232;28;20522;-72
2024/01/14 06:40:28;;;;;;;24.92;3.40;;;4.60;99.90;;;;;;5071373;28;20547;-72
2024/01/14 06:42:54;;;;;;;27.90;3.63;;;4.70;99.90;;;;;;5073412;28;20034;-70
2024/01/14 06:45:20;;;;;;;26.60;3.53;;;4.70;99.90;;;;;;5070427;28;20033;-73
2024/01/14 06:47:45;;;;;;;27.55;2.92;;;4.70;99.90;;;;;;5088596;28;20037;-70
2024/01/14 06:50:11;;;;;;;23.08;3.58;;;4.70;99.90;;;;;;5091146;28;20033;-70
2024/01/14 06:52:37;;;;;;;28.15;4.05;;;4.70;99.90;;;;;;5080282;28;20021;-72
2024/01/14 06:55:04;;;;;;;32.00;3.15;;;4.70;99.90;;;;;;5076386;28;20730;-70
2024/01/14 06:57:31;;;;;;;30.05;3.60;;;4.70;99.90;;;;;;5088260;28;20047;-71
2024/01/14 06:59:59;;;;;;;28.02;2.88;;;4.70;99.90;;;;;;5094826;28;20021;-72
2024/01/14 07:02:26;;;;;;;33.30;3.88;;;4.60;99.90;;;;;;5090131;28;20047;-71
2024/01/14 07:04:52;;;;;;;36.10;3.42;;;4.60;99.90;;;;;;5073589;28;20025;-70
2024/01/14 07:07:18;;;;;;;33.20;4.13;;;4.60;99.90;;;;;;5075653;28;20020;-70
2024/01/14 07:09:43;;;;;;;31.70;4.60;;;4.60;99.90;;;;;;5072660;28;20412;-71
2024/01/14 07:12:11;;;;;;;28.60;3.65;;;4.60;99.90;;;;;;5071720;28;20032;-75
2024/01/14 07:14:37;;;;;;;23.58;3.65;;;4.60;99.90;;;;;;5071608;28;20074;-73
2024/01/14 07:17:03;;;;;;;27.90;3.63;;;4.70;99.90;;;;;;5073062;28;20025;-73
2024/01/14 07:19:29;;;;;;;36.25;3.85;;;4.60;99.90;;;;;;5071148;28;20029;-73
2024/01/14 07:21:54;;;;;;;35.28;5.28;;;4.60;99.90;;;;;;5074261;28;20028;-74
2024/01/14 07:24:20;;;;;;;25.00;4.38;;;4.60;99.90;;;;;;5071141;28;20032;-74
2024/01/14 07:27:06;;;;;;;34.38;3.60;;;4.60;99.90;;;;;;5076942;28;20082;-75
2024/01/14 07:29:32;;;;;;;24.83;2.85;;;4.50;99.90;;;;;;5069658;28;20037;-70
2024/01/14 07:31:58;;;;;;;27.90;3.97;;;4.60;99.90;;;;;;5071351;28;20025;-70
2024/01/14 07:34:23;;;;;;;25.27;3.72;;;4.60;99.90;;;;;;5071743;28;20104;-69
2024/01/14 07:36:49;;;;;;;22.30;2.97;;;4.50;99.90;;;;;;5071295;28;20103;-69
2024/01/14 07:39:16;;;;;;;17.45;3.35;;;4.50;99.90;;;;;;5071362;28;20024;-69
2024/01/14 07:41:41;;;;;;;30.05;3.00;;;4.50;99.90;;;;;;5072365;28;20447;-71
2024/01/14 07:44:07;;;;;;;30.88;3.63;;;4.50;99.90;;;;;;5071659;28;20079;-70
2024/01/14 07:46:32;;;;;;;22.90;2.72;;;4.50;99.90;;;;;;5071451;28;20019;-70
2024/01/14 07:48:58;;;;;;;24.48;3.10;;;4.60;99.90;;;;;;5070286;28;20119;-69
2024/01/14 07:51:24;;;;;;;28.27;3.25;;;4.50;99.90;;;;;;5071616;28;20036;-70
2024/01/14 07:53:50;;;;;;;18.27;2.30;;;4.60;99.90;;;;;;5069268;28;20081;-72
2024/01/14 07:56:15;;;;;;;17.48;3.13;;;4.60;99.90;;;;;;5069786;28;20071;-70
2024/01/14 07:58:41;;;;;;;18.25;1.95;;;4.60;99.90;;;;;;5071265;28;20013;-71
2024/01/14 08:01:06;;;;;;;19.23;3.00;;;4.60;99.90;;;;;;5071238;28;20025;-72
2024/01/14 08:03:32;;;;;;;21.95;2.47;;;4.60;99.90;;;;;;5070607;28;20025;-71
2024/01/14 08:05:58;;;;;;;22.65;3.03;;;4.60;99.90;;;;;;5069651;28;20571;-71
2024/01/14 08:08:24;;;;;;;16.33;2.35;;;4.60;99.90;;;;;;5070085;28;20476;-70
2024/01/14 08:10:51;;;;;;;29.40;3.42;;;4.70;99.90;;;;;;5070453;28;20024;-70
2024/01/14 08:13:16;;;;;;;21.98;2.97;;;4.70;99.90;;;;;;5071239;28;20560;-71
2024/01/14 08:15:42;;;;;;;22.05;3.08;;;4.70;99.90;;;;;;5069112;28;20108;-72
2024/01/14 08:18:08;;;;;;;21.60;2.38;;;4.70;99.90;;;;;;5070984;28;20032;-70
2024/01/14 08:20:33;;;;;;;22.92;2.67;;;4.70;99.90;;;;;;5069662;28;20047;-70
2024/01/14 08:22:59;;;;;;;24.67;3.17;;;4.70;99.90;;;;;;5071297;28;20028;-71
2024/01/14 08:25:25;;;;;;;34.70;3.75;;;4.70;99.90;;;;;;5082042;28;20035;-71
2024/01/14 08:27:52;;;;;;;21.77;3.40;;;4.60;99.90;;;;;;5070481;28;20383;-70
2024/01/14 08:30:18;;;;;;;17.23;2.40;;;4.60;99.90;;;;;;5094177;28;20084;-72
2024/01/14 08:32:43;;;;;;;23.67;2.90;;;4.60;99.90;;;;;;5098952;28;20438;-70
2024/01/14 08:35:11;;;;;;;17.52;3.00;;;4.70;99.90;;;;;;5090263;28;20103;-70
2024/01/14 08:37:36;;;;;;;19.35;2.47;;;4.60;99.90;;;;;;5090514;28;20577;-72
2024/01/14 08:40:03;;;;;;;24.40;2.58;;;4.60;99.90;;;;;;5092339;28;20036;-70
2024/01/14 08:42:28;;;;;;;20.50;2.30;;;4.60;99.90;;;;;;5094200;28;20020;-70
2024/01/14 08:44:54;;;;;;;21.52;2.22;;;4.70;99.90;;;;;;5093242;28;20043;-71
2024/01/14 08:47:20;;;;;;;13.15;2.63;;;4.70;99.90;;;;;;5093960;28;20030;-69
2024/01/14 08:49:45;;;;;;;21.25;2.42;;;4.70;99.90;;;;;;5094068;28;20032;-71
2024/01/14 08:52:11;;;;;;;13.65;2.83;;;4.70;99.90;;;;;;5094696;28;20061;-71
2024/01/14 08:54:37;;;;;;;13.52;1.98;;;4.80;99.90;;;;;;5077160;28;20129;-70
2024/01/14 08:57:03;;;;;;;16.33;2.55;;;4.80;99.90;;;;;;5076521;28;20058;-70
2024/01/14 08:59:29;;;;;;;17.38;2.72;;;5.00;99.90;;;;;;5078560;28;20029;-71
2024/01/14 09:01:54;;;;;;;13.50;2.20;;;5.00;99.90;;;;;;5076295;28;20077;-71
2024/01/14 09:04:20;;;;;;;24.23;2.95;;;5.00;99.90;;;;;;5074136;28;20056;-70
2024/01/14 09:06:45;;;;;;;25.30;4.97;;;4.90;99.90;;;;;;5076364;28;20020;-71
2024/01/14 09:09:11;;;;;;;31.25;3.42;;;4.90;99.90;;;;;;5074737;28;20070;-70
2024/01/14 09:11:38;;;;;;;24.73;4.25;;;5.10;99.90;;;;;;5074483;28;20025;-73
2024/01/14 09:14:04;;;;;;;25.27;4.15;;;5.10;99.90;;;;;;5071586;28;20027;-70
2024/01/14 09:16:30;;;;;;;22.20;5.00;;;5.20;99.90;;;;;;5072639;28;20107;-75
2024/01/14 09:18:55;;;;;;;23.90;3.92;;;5.30;99.90;;;;;;5080362;28;20027;-75
2024/01/14 09:21:21;;;;;;;24.38;3.67;;;5.50;99.90;;;;;;5076406;28;20028;-76
2024/01/14 09:23:47;;;;;;;22.20;3.75;;;5.40;99.90;;;;;;5077043;28;20166;-72
2024/01/14 09:26:13;;;;;;;25.33;3.20;;;5.40;99.90;;;;;;5085049;28;20028;-72
2024/01/14 09:28:38;;;;;;;32.65;4.80;;;5.40;99.90;;;;;;5080860;28;20030;-72
2024/01/14 09:31:05;;;;;;;24.92;3.35;;;5.40;99.90;;;;;;5072328;28;20024;-72
2024/01/14 09:33:30;;;;;;;29.75;3.80;;;5.30;99.90;;;;;;5077457;28;20032;-74
2024/01/14 09:35:56;;;;;;;37.38;7.63;;;5.20;99.90;;;;;;5073755;28;20017;-73
2024/01/14 09:38:22;;;;;;;34.97;6.03;;;5.20;99.90;;;;;;5077249;28;20020;-72
2024/01/14 09:40:57;;;;;;;34.13;6.63;;;5.40;99.90;;;;;;5077540;28;20028;-73
2024/01/14 09:43:25;;;;;;;26.70;3.30;;;5.60;99.90;;;;;;5080940;28;20029;-72
2024/01/14 09:45:51;;;;;;;23.58;3.90;;;5.70;99.90;;;;;;5080679;28;20028;-72
2024/01/14 09:48:18;;;;;;;171.30;41.50;;;5.60;99.90;;;;;;5081681;28;20375;-72
2024/01/14 09:50:44;;;;;;;142.60;39.65;;;5.50;99.90;;;;;;5080891;28;20597;-71
2024/01/14 09:53:14;;;;;;;26.50;4.90;;;5.40;99.90;;;;;;5080873;28;20056;-75
2024/01/14 09:55:40;;;;;;;23.52;3.90;;;5.30;99.90;;;;;;5085465;28;20012;-71
2024/01/14 09:58:06;;;;;;;23.77;3.42;;;5.10;99.90;;;;;;5085617;28;20039;-70
2024/01/14 10:00:36;;;;;;;25.25;3.35;;;5.00;99.90;;;;;;5073652;28;20052;-71
2024/01/14 10:03:02;;;;;;;27.65;3.60;;;4.80;99.90;;;;;;5071629;28;20109;-70
2024/01/14 10:05:28;;;;;;;21.30;3.25;;;4.80;99.90;;;;;;5070388;28;20021;-71
2024/01/14 10:07:53;;;;;;;16.52;3.08;;;4.80;99.90;;;;;;5071875;28;20059;-70
2024/01/14 10:10:19;;;;;;;21.33;3.53;;;4.70;99.90;;;;;;5071967;28;20039;-71
2024/01/14 10:12:46;;;;;;;18.58;4.20;;;4.70;99.90;;;;;;5071885;28;20566;-72
2024/01/14 10:15:12;;;;;;;18.27;2.92;;;4.70;99.90;;;;;;5071131;28;20104;-74
2024/01/14 10:17:37;;;;;;;18.17;3.17;;;4.80;99.90;;;;;;5072597;28;20059;-73
2024/01/14 10:20:04;;;;;;;29.23;4.07;;;4.90;99.90;;;;;;5071533;28;20707;-73
2024/01/14 10:22:30;;;;;;;24.27;3.40;;;5.00;99.90;;;;;;5072139;28;20369;-73
2024/01/14 10:24:56;;;;;;;21.88;2.88;;;5.00;99.90;;;;;;5070270;28;20127;-73
2024/01/14 10:27:23;;;;;;;29.00;3.55;;;4.90;99.90;;;;;;5071687;28;20031;-74
2024/01/14 10:29:50;;;;;;;26.38;4.07;;;4.90;99.90;;;;;;5071383;28;20058;-73
2024/01/14 10:32:16;;;;;;;21.17;3.50;;;5.00;99.90;;;;;;5070734;28;20044;-71
2024/01/14 10:34:42;;;;;;;22.15;3.13;;;4.90;99.90;;;;;;5070743;28;20545;-70
2024/01/14 10:37:08;;;;;;;22.27;3.65;;;4.90;99.90;;;;;;5071130;28;20099;-73
2024/01/14 10:39:34;;;;;;;17.63;2.88;;;4.90;99.90;;;;;;5071575;28;20484;-73
2024/01/14 10:42:01;;;;;;;23.95;2.92;;;5.00;99.90;;;;;;5071728;28;20044;-70
2024/01/14 10:44:31;;;;;;;27.77;3.80;;;5.00;99.90;;;;;;5070867;28;20036;-71
2024/01/14 10:47:00;;;;;;;22.33;3.38;;;5.10;99.90;;;;;;5071381;28;20085;-70
2024/01/14 10:49:26;;;;;;;17.05;3.00;;;5.20;99.90;;;;;;5071280;28;20368;-69
2024/01/14 10:52:05;;;;;;;15.95;2.50;;;5.20;99.90;;;;;;5071565;28;20028;-70
2024/01/14 10:54:39;;;;;;;25.83;3.75;;;5.30;99.90;;;;;;5070391;28;20170;-72
2024/01/14 10:57:28;;;;;;;13.75;2.80;;;5.20;99.90;;;;;;5070544;28;20020;-72
2024/01/14 10:59:57;;;;;;;23.25;4.20;;;5.20;99.90;;;;;;5061317;28;20064;-73
2024/01/14 11:02:27;;;;;;;35.45;6.43;;;5.30;99.90;;;;;;5070613;28;20028;-73
2024/01/14 11:04:54;;;;;;;18.38;2.95;;;5.20;99.90;;;;;;5070251;28;20021;-71
2024/01/14 11:07:22;;;;;;;21.13;3.75;;;5.20;99.90;;;;;;5071078;28;20430;-72
2024/01/14 11:09:49;;;;;;;18.63;2.72;;;5.20;99.90;;;;;;5071050;28;20121;-72
2024/01/14 11:12:29;;;;;;;25.92;4.38;;;5.20;99.90;;;;;;5075641;28;20062;-70
2024/01/14 11:15:05;;;;;;;14.80;2.42;;;5.10;99.90;;;;;;5075746;28;20027;-70
2024/01/14 11:18:07;;;;;;;19.75;2.78;;;5.00;99.90;;;;;;5077677;28;20062;-71
2024/01/14 11:20:36;;;;;;;22.80;3.67;;;4.90;99.90;;;;;;5083567;28;20029;-73
2024/01/14 11:23:01;;;;;;;18.33;3.20;;;4.90;99.90;;;;;;5093446;28;20029;-74
2024/01/14 11:25:31;;;;;;;19.13;2.65;;;4.90;99.90;;;;;;5071754;28;20506;-71
2024/01/14 11:27:57;;;;;;;19.67;2.53;;;4.90;99.90;;;;;;5069897;28;20048;-71
2024/01/14 11:31:03;;;;;;;21.70;3.05;;;4.90;99.90;;;;;;5070014;28;20484;-70
2024/01/14 11:33:29;;;;;;;;;;;4.80;99.90;;;;;;5070157;28;20048;-71
2024/01/14 11:35:55;;;;;;;21.27;2.97;;;4.90;99.90;;;;;;5067971;28;19934;-70
2024/01/14 11:38:45;;;;;;;22.25;3.40;;;4.90;99.90;;;;;;5067899;28;20128;-70
2024/01/14 11:41:30;;;;;;;17.88;3.42;;;4.90;99.90;;;;;;5068380;28;20090;-71
2024/01/14 11:43:58;;;;;;;24.23;2.92;;;4.80;99.90;;;;;;5067845;28;20020;-70
2024/01/14 11:46:38;;;;;;;17.35;2.65;;;4.90;99.90;;;;;;5068235;28;20024;-70
2024/01/14 11:49:09;;;;;;;17.98;3.13;;;4.90;99.90;;;;;;5068429;28;20055;-70
2024/01/14 11:51:43;;;;;;;14.00;2.95;;;4.90;99.90;;;;;;5067988;28;20029;-70
2024/01/14 11:54:10;;;;;;;23.02;3.28;;;5.00;99.90;;;;;;5068225;28;20441;-70
2024/01/14 11:56:36;;;;;;;15.90;2.35;;;5.10;99.90;;;;;;5068541;28;20036;-69
2024/01/14 11:59:09;;;;;;;15.02;2.78;;;5.10;99.90;;;;;;5068910;28;20451;-71
2024/01/14 12:01:35;;;;;;;14.30;2.90;;;5.20;99.90;;;;;;5068872;28;20383;-71
2024/01/14 12:04:08;;;;;;;15.55;2.75;;;5.10;99.90;;;;;;5067632;28;20345;-71
2024/01/14 12:06:44;;;;;;;12.30;2.58;;;5.10;99.90;;;;;;5068445;28;20020;-71
2024/01/14 12:09:12;;;;;;;11.57;2.55;;;5.10;99.90;;;;;;5068409;28;20031;-71
2024/01/14 12:11:39;;;;;;;14.77;2.63;;;5.20;99.90;;;;;;5068698;28;20532;-71
2024/01/14 12:14:05;;;;;;;16.85;3.13;;;5.20;99.90;;;;;;5068679;28;20082;-72
2024/01/14 12:16:31;;;;;;;11.70;2.20;;;5.40;99.90;;;;;;5070613;28;20044;-70
2024/01/14 12:18:57;;;;;;;14.23;2.58;;;5.50;99.90;;;;;;5073556;28;20096;-72
2024/01/14 12:21:24;;;;;;;18.63;2.33;;;5.60;99.90;;;;;;5074146;28;20027;-70
2024/01/14 12:23:51;;;;;;;20.10;3.00;;;5.60;99.90;;;;;;5072462;28;20075;-73
2024/01/14 12:26:18;;;;;;;15.95;2.47;;;5.70;99.90;;;;;;5073246;28;20032;-72
2024/01/14 12:28:44;;;;;;;11.90;2.35;;;5.90;99.90;;;;;;5074254;28;20114;-73
2024/01/14 12:31:19;;;;;;;15.15;2.40;;;6.00;99.90;;;;;;5073950;28;20149;-72
2024/01/14 12:33:45;;;;;;;11.73;2.28;;;6.10;99.90;;;;;;5075378;28;20092;-72
2024/01/14 12:36:12;;;;;;;17.45;2.10;;;6.20;99.90;;;;;;5072627;28;20021;-72
2024/01/14 12:38:38;;;;;;;14.30;2.08;;;6.30;99.90;;;;;;5073076;28;20056;-73
2024/01/14 12:41:04;;;;;;;23.50;2.67;;;6.30;99.90;;;;;;5074008;28;20036;-71
2024/01/14 12:43:30;;;;;;;20.50;3.22;;;6.00;99.90;;;;;;5073085;28;20506;-73
2024/01/14 12:45:56;;;;;;;9.68;2.50;;;5.90;99.90;;;;;;5073005;28;20033;-72